Bancroft, NE (68004)

03:00 CST le 06 Mars 2015 (GMT -0600)
6 miles south of Craig | Change Station
CLOSE
Current Station
Stations météorologiques personnelles
Location: Craig, NE
Altitude: 1290 ft
Stations météo à proximité

Alt. 1290 ft 41.70 °N, 96.36 °W | Updated 2 seconds ago

Ciel dégagé
Ciel dégagé
20.9 ° F
Paraît 12 ° F
N
7.0
Vent Variable Vent de SSO
Gusts 7.0 mph

Aujourd'hui
Haut(e) -- | Bas -- ° F
--% Risque de précip.
Hier
Haut(e) -- | Bas -- ° F
Precip. -- pouce
6:53 AM 6:22 PM
Pleine lune, 100% visible
Pression 30.15 pouce
Visibilité 10.0 Miles terrestres
Nuages Ciel dégagé
Refroidissement éolien 12 ° F
Point de rosée 12 ° F
Humidité 69%
Précipitations pouce
Profondeur de la couche neigeuse Non disponible.
UV 0 sur 12
Pollen .20 sur 12
Qualité de l'air Non disponible.
Flu Activity Non disponible.
METAR KLCG 060835Z AUTO 21006KT 10SM CLR M05/M13 A3015 RMK AO2 T10461132

More Conditions Fewer Conditions

Pression 30.15 pouce
Visibilité 10.0 Miles terrestres
Nuages Ciel dégagé
Refroidissement éolien 12 ° F
Point de rosée 12 ° F
Humidité 69%
Précipitations pouce
Profondeur de la couche neigeuse Non disponible.
UV 0 sur 12
Pollen .20 sur 12
Qualité de l'air Non disponible.
Flu Activity Non disponible.
METAR KLCG 060835Z AUTO 21006KT 10SM CLR M05/M13 A3015 RMK AO2 T10461132

More Conditions Fewer Conditions

10-Day Weather Forecast

Almanac

Astronomie

Mar. 06, 2015 Lever Coucher
Temps réel
Crépuscule civil
Crépuscule nautique
Crépuscule astronomique
Lune
Durée de lumière visible
Longueur du jour
Tomorrow will be .
, % of the Moon is Illuminated

Extrêmes aujourd'hui

State Highs State Lows

Community

WunderPhotos

Upload Photos

1,803,211 Photos téléchargées !

WunderBlogs® & News

Nearby

Qualité de l'air

  Qualité de l'air Indice de la qualité de l'air Polluant
Not available.

Épaisseur de neige

Station Depth Altitude

Activité sismique

Ville Distance Mag. Time & Date
Minimum magnitude displayed is 2.5.

Températures des eaux côtières

Lieu Température

Stations météo à proximité